Time;durP1;ratioP1;P1;durP2;ratioP2;P2;SDS_P1;SDS_P2;PMS_P1;PMS_P2;Temp;Humidity;BMP_temperature;BMP_pressure;BME280_temperature;BME280_humidity;BME280_pressure;Samples;Min_cycle;Max_cycle;Signal;HPM_P1;HPM_P2
2022/01/24 00:01:03;;;;;;;4.2;2.8;;;;;;;-0.02;87.12793;951.7849;;;;
2022/01/24 00:03:34;;;;;;;4.1;3;;;;;;;0.02;87.08203;951.8053;;;;
2022/01/24 00:06:08;;;;;;;4;2.8;;;;;;;-0.04;86.95703;951.8716;;;;
2022/01/24 00:08:41;;;;;;;4.2;2.8;;;;;;;-0.02;86.99414;951.8544;;;;
2022/01/24 00:11:37;;;;;;;2.9;2.5;;;;;;;-0.14;87.64941;951.7485;;;;
2022/01/24 00:16:29;;;;;;;3.2;2.6;;;;;;;0.1;87.06543;951.7901;;;;
2022/01/24 00:26:47;;;;;;;5.8;3.6;;;;;;;0.07;88.22754;951.7118;;;;
2022/01/24 00:29:04;;;;;;;3.6;2.6;;;;;;;0.01;88.40527;951.6803;;;;
2022/01/24 00:31:29;;;;;;;3.2;2.5;;;;;;;-0.27;88.04395;951.5803;;;;
2022/01/24 00:33:54;;;;;;;3.3;3;;;;;;;-0.22;88.22266;951.5974;;;;
2022/01/24 00:36:20;;;;;;;4.9;3.5;;;;;;;-0.1;87.3584;951.5641;;;;
2022/01/24 00:38:47;;;;;;;3.3;2.8;;;;;;;-0.11;87.74414;951.5552;;;;
2022/01/24 00:41:15;;;;;;;3.3;2.8;;;;;;;-0.13;88.01855;951.6111;;;;
2022/01/24 00:43:53;;;;;;;4.1;3.3;;;;;;;-0.05;87.75781;951.5536;;;;
2022/01/24 00:46:06;;;;;;;5.5;3.3;;;;;;;-0.19;87.62891;951.5424;;;;
2022/01/24 00:48:38;;;;;;;3.1;2.6;;;;;;;-0.06;87.09668;951.4861;;;;
2022/01/24 00:53:31;;;;;;;4.3;2.9;;;;;;;0.05;87.87793;951.405;;;;
2022/01/24 00:55:43;;;;;;;3.2;2.9;;;;;;;-0.03;87.92871;951.425;;;;
2022/01/24 00:58:11;;;;;;;3.8;3.1;;;;;;;0.05;87.63281;951.4166;;;;
2022/01/24 01:00:36;;;;;;;3.9;3;;;;;;;0.18;87.05762;951.4028;;;;
2022/01/24 01:03:01;;;;;;;4;2.9;;;;;;;0.12;87.02441;951.4899;;;;
2022/01/24 01:05:43;;;;;;;3.8;3.1;;;;;;;-0.12;87.71094;951.5173;;;;
2022/01/24 01:08:01;;;;;;;4.8;3.7;;;;;;;-0.37;90.0293;951.525;;;;
2022/01/24 01:20:00;;;;;;;6.5;5.1;;;;;;;-0.24;92.12695;951.5228;;;;
2022/01/24 01:22:29;;;;;;;7.6;5.5;;;;;;;-0.09;91.7373;951.5789;;;;
2022/01/24 01:24:55;;;;;;;7.2;5.4;;;;;;;-0.23;91.92871;951.6211;;;;
2022/01/24 01:27:26;;;;;;;5.8;4.4;;;;;;;-0.33;92.01758;951.5836;;;;
2022/01/24 01:29:54;;;;;;;5.6;4.7;;;;;;;-0.32;91.57422;951.5927;;;;
2022/01/24 01:32:18;;;;;;;5.3;4.6;;;;;;;-0.29;91.93652;951.577;;;;
2022/01/24 01:35:35;;;;;;;7.4;4.8;;;;;;;-0.27;91.58594;951.5578;;;;
2022/01/24 01:37:25;;;;;;;6.4;5;;;;;;;-0.35;91.8916;951.5139;;;;
2022/01/24 01:39:53;;;;;;;8.1;5.2;;;;;;;-0.44;92.14844;951.5179;;;;
2022/01/24 01:54:17;;;;;;;7.1;5.2;;;;;;;-0.97;94.42285;951.3831;;;;
2022/01/24 01:56:26;;;;;;;7.7;5.2;;;;;;;-0.98;94.6875;951.4496;;;;
2022/01/24 01:58:52;;;;;;;7.2;5.4;;;;;;;-0.97;94.24707;951.4122;;;;
2022/01/24 02:01:17;;;;;;;9.4;6;;;;;;;-1.01;94.4043;951.3074;;;;
2022/01/24 02:03:46;;;;;;;7.7;6.1;;;;;;;-1.09;94.59668;951.3483;;;;
2022/01/24 02:06:10;;;;;;;7.9;5.8;;;;;;;-1.23;94.70898;951.3353;;;;
2022/01/24 02:08:37;;;;;;;7.6;5.6;;;;;;;-1.24;95.01953;951.2808;;;;
2022/01/24 02:11:04;;;;;;;7.7;5.7;;;;;;;-1.22;94.95508;951.231;;;;
2022/01/24 02:13:30;;;;;;;8.2;5.7;;;;;;;-1.3;95.32715;951.1794;;;;
2022/01/24 02:16:10;;;;;;;6.8;5.4;;;;;;;-1.2;95.53711;951.1486;;;;
2022/01/24 02:18:33;;;;;;;7.6;5.6;;;;;;;-1.24;95.8418;951.0923;;;;
2022/01/24 02:21:09;;;;;;;7.4;5.4;;;;;;;-1.05;95.23828;951.0605;;;;
2022/01/24 02:23:36;;;;;;;7;4.8;;;;;;;-1.02;94.4668;951.063;;;;
2022/01/24 02:25:42;;;;;;;7.4;5.3;;;;;;;-1.24;94.96387;951.0547;;;;
2022/01/24 02:28:10;;;;;;;7.5;5.2;;;;;;;-1.16;94.95801;951.008;;;;
2022/01/24 02:30:51;;;;;;;6.1;4.7;;;;;;;-1.23;95.03027;950.9833;;;;
2022/01/24 02:32:57;;;;;;;5.9;4.7;;;;;;;-1.11;95.04785;951.0753;;;;
2022/01/24 02:35:25;;;;;;;5.6;4.2;;;;;;;-1.11;94.05957;950.9472;;;;
2022/01/24 02:37:50;;;;;;;5.6;4.2;;;;;;;-1.16;93.8584;950.9238;;;;
2022/01/24 02:40:19;;;;;;;7.7;5.6;;;;;;;-1.23;93.98633;950.9295;;;;
2022/01/24 02:49:58;;;;;;;6.3;5.4;;;;;;;-1.18;93.17676;950.8127;;;;
2022/01/24 02:52:28;;;;;;;4.7;3.8;;;;;;;-1.17;92.7793;950.8505;;;;
2022/01/24 02:54:53;;;;;;;4.3;3.3;;;;;;;-1.09;91.47656;950.7678;;;;
2022/01/24 02:57:19;;;;;;;3.8;3;;;;;;;-1.04;89.48438;950.7169;;;;
2022/01/24 02:59:44;;;;;;;3.1;2.4;;;;;;;-1.03;88.41895;950.6755;;;;
2022/01/24 03:02:09;;;;;;;2.7;2.2;;;;;;;-0.99;87.66211;950.6891;;;;
2022/01/24 03:04:34;;;;;;;2.5;2.1;;;;;;;-0.88;87.5625;950.6987;;;;
2022/01/24 03:07:00;;;;;;;3.6;2.7;;;;;;;-0.89;88.30566;950.5928;;;;
2022/01/24 03:09:25;;;;;;;4.2;3.2;;;;;;;-0.92;89.34473;950.7051;;;;
2022/01/24 03:12:07;;;;;;;4.4;3.3;;;;;;;-0.92;89.60938;950.6219;;;;
2022/01/24 03:14:18;;;;;;;4.9;4;;;;;;;-0.83;90.03027;950.5381;;;;
2022/01/24 03:16:43;;;;;;;5;4;;;;;;;-0.98;90.28711;950.5787;;;;
2022/01/24 03:19:10;;;;;;;5.3;4.1;;;;;;;-1.12;90.46875;950.5358;;;;
2022/01/24 03:21:35;;;;;;;7.3;5.1;;;;;;;-1.43;92.19922;950.4918;;;;
2022/01/24 03:24:05;;;;;;;9.1;5.9;;;;;;;-1.54;93.24121;950.4127;;;;
2022/01/24 03:26:30;;;;;;;6.8;4.6;;;;;;;-1.52;93.30078;950.4757;;;;
2022/01/24 03:28:57;;;;;;;6.5;4.7;;;;;;;-1.53;93.59863;950.4306;;;;
2022/01/24 03:31:22;;;;;;;8.5;5.5;;;;;;;-1.51;93.91309;950.414;;;;
2022/01/24 03:33:47;;;;;;;5.9;4;;;;;;;-1.45;93.69434;950.3387;;;;
2022/01/24 03:36:14;;;;;;;6;4.2;;;;;;;-1.54;93.68457;950.3225;;;;
2022/01/24 03:38:39;;;;;;;11.1;6.8;;;;;;;-1.43;93.39648;950.2831;;;;
2022/01/24 03:41:06;;;;;;;9;5.4;;;;;;;-1.52;92.58105;950.2971;;;;
2022/01/24 03:43:31;;;;;;;7.5;5.2;;;;;;;-1.55;92.76172;950.3223;;;;
2022/01/24 03:46:13;;;;;;;8.4;5.4;;;;;;;-1.62;92.60156;950.2939;;;;
2022/01/24 03:48:37;;;;;;;6.4;4.4;;;;;;;-1.59;92.69824;950.2344;;;;
2022/01/24 03:50:47;;;;;;;6.9;4.8;;;;;;;-1.51;92.2373;950.1994;;;;
2022/01/24 03:53:12;;;;;;;6.4;4.5;;;;;;;-1.57;92.25879;950.1668;;;;
2022/01/24 03:55:38;;;;;;;5.8;5.1;;;;;;;-1.64;92.40918;950.1613;;;;
2022/01/24 03:58:03;;;;;;;7.3;5.3;;;;;;;-1.8;93.26074;950.0266;;;;
2022/01/24 04:02:31;;;;;;;7.3;5.5;;;;;;;-1.86;93.66992;949.9975;;;;
2022/01/24 04:04:56;;;;;;;8.6;6.1;;;;;;;-1.81;93.83496;950.0829;;;;
2022/01/24 04:07:23;;;;;;;8.4;5.9;;;;;;;-1.63;93.1875;950.0948;;;;
2022/01/24 04:09:49;;;;;;;7.7;6;;;;;;;-1.71;93.34766;950.0421;;;;
2022/01/24 04:12:16;;;;;;;11.6;7.2;;;;;;;-1.77;93.55469;950.0031;;;;
2022/01/24 04:14:54;;;;;;;10.6;7.1;;;;;;;-1.74;93.33008;950.0739;;;;
2022/01/24 04:17:25;;;;;;;8.6;6.4;;;;;;;-1.92;93.62305;949.9888;;;;
2022/01/24 04:21:19;;;;;;;8;6.1;;;;;;;-1.94;94.37305;950.0267;;;;
2022/01/24 04:22:03;;;;;;;9.3;6.5;;;;;;;-1.83;93.79785;950.0294;;;;
2022/01/24 04:24:34;;;;;;;6.6;5.4;;;;;;;-1.88;93.38672;950.0153;;;;
2022/01/24 04:26:59;;;;;;;7.5;5.6;;;;;;;-1.86;93.52539;949.9578;;;;
2022/01/24 04:29:26;;;;;;;8;5.1;;;;;;;-1.82;93.22363;949.9345;;;;
2022/01/24 04:31:51;;;;;;;7.3;5.3;;;;;;;-1.77;93.02246;949.8692;;;;
2022/01/24 04:34:17;;;;;;;6.7;5.4;;;;;;;-1.93;93.25488;949.8969;;;;
2022/01/24 04:36:42;;;;;;;8;5.9;;;;;;;-2.11;93.51172;949.9522;;;;
2022/01/24 04:39:08;;;;;;;8.4;5.9;;;;;;;-2.13;94.01953;949.8787;;;;
2022/01/24 04:41:36;;;;;;;9;6.3;;;;;;;-2.05;93.90332;949.8694;;;;
2022/01/24 04:44:01;;;;;;;8.7;6;;;;;;;-2.14;94.00684;949.8248;;;;
2022/01/24 04:46:46;;;;;;;7.1;5.3;;;;;;;-2;94.11426;949.8466;;;;
2022/01/24 04:51:28;;;;;;;7.9;4.9;;;;;;;-1.85;92.70703;949.8013;;;;
2022/01/24 04:54:26;;;;;;;6.3;4.3;;;;;;;-1.75;92.62891;949.7896;;;;
2022/01/24 04:56:04;;;;;;;7.2;5.4;;;;;;;-1.66;91.90332;949.7606;;;;
2022/01/24 04:58:29;;;;;;;5.5;4.2;;;;;;;-1.52;92.08008;949.6969;;;;
2022/01/24 05:00:54;;;;;;;8.5;5.2;;;;;;;-1.52;91.44727;949.7266;;;;
2022/01/24 05:03:21;;;;;;;54.6;37.9;;;;;;;-1.49;91.36426;949.8113;;;;
2022/01/24 05:05:47;;;;;;;6.4;5;;;;;;;-1.43;91.04688;949.8361;;;;
2022/01/24 05:08:14;;;;;;;16.8;10.4;;;;;;;-1.33;90.48926;949.8272;;;;
2022/01/24 05:10:42;;;;;;;31.7;21.5;;;;;;;-1.26;89.80469;949.845;;;;
2022/01/24 05:23:33;;;;;;;5.1;4.3;;;;;;;-1.16;88.6377;949.7848;;;;
2022/01/24 05:25:15;;;;;;;5.7;3.9;;;;;;;-1.17;88.35938;949.7615;;;;
2022/01/24 05:27:41;;;;;;;6.2;4.5;;;;;;;-1.13;88.07617;949.785;;;;
2022/01/24 05:30:07;;;;;;;6.8;5.1;;;;;;;-1.16;87.6709;949.8344;;;;
2022/01/24 05:32:35;;;;;;;8.3;5.5;;;;;;;-1.33;88.08984;949.948;;;;
2022/01/24 05:35:00;;;;;;;6.7;5;;;;;;;-1.25;88.16309;949.9764;;;;
2022/01/24 05:37:26;;;;;;;7.2;5.5;;;;;;;-1.39;88.6123;949.8611;;;;
2022/01/24 05:39:51;;;;;;;5.8;3.8;;;;;;;-1.35;88.35254;949.9584;;;;
2022/01/24 05:42:21;;;;;;;7.7;5.1;;;;;;;-1.47;88.60547;949.8331;;;;
2022/01/24 05:44:43;;;;;;;6.9;4.4;;;;;;;-1.31;87.60547;949.9214;;;;
2022/01/24 05:47:10;;;;;;;8.6;5.3;;;;;;;-1.42;88.02734;949.9573;;;;
2022/01/24 05:49:35;;;;;;;9.2;6;;;;;;;-1.45;88.65625;949.9861;;;;
2022/01/24 05:52:03;;;;;;;8.9;5.8;;;;;;;-1.62;88.96191;949.9885;;;;
2022/01/24 05:54:30;;;;;;;11.1;7.3;;;;;;;-1.82;89.69629;949.9631;;;;
2022/01/24 05:56:52;;;;;;;11;8;;;;;;;-2.02;90.56055;950.0574;;;;
2022/01/24 05:59:19;;;;;;;8.5;6.7;;;;;;;-2.1;90.7666;950.0903;;;;
2022/01/24 06:01:44;;;;;;;8.2;6.4;;;;;;;-2.31;91.46484;950.1433;;;;
2022/01/24 06:04:11;;;;;;;8.9;6.8;;;;;;;-2.32;92.16016;950.1544;;;;
2022/01/24 06:06:36;;;;;;;10.1;6.5;;;;;;;-2.34;92.49805;950.1514;;;;
2022/01/24 06:09:02;;;;;;;9.1;6.5;;;;;;;-2.41;92.69434;950.2372;;;;
2022/01/24 06:11:28;;;;;;;10.5;6.8;;;;;;;-2.52;92.8916;950.3;;;;
2022/01/24 06:13:57;;;;;;;15.5;9.9;;;;;;;-2.41;93.21289;950.2128;;;;
2022/01/24 06:16:21;;;;;;;14.7;9.9;;;;;;;-2.27;92.86816;950.3398;;;;
2022/01/24 06:18:51;;;;;;;16.4;10.1;;;;;;;-2.27;92.31445;950.277;;;;
2022/01/24 06:21:17;;;;;;;14.3;10.2;;;;;;;-2.21;92.64941;950.2914;;;;
2022/01/24 06:23:44;;;;;;;19.6;12.7;;;;;;;-2.25;92.73926;950.3019;;;;
2022/01/24 06:26:10;;;;;;;16.1;10.1;;;;;;;-2.27;92.54688;950.3872;;;;
2022/01/24 06:28:39;;;;;;;12;8.4;;;;;;;-2.32;92.75879;950.2938;;;;
2022/01/24 06:31:04;;;;;;;12.4;8.3;;;;;;;-2.22;92.60156;950.4025;;;;
2022/01/24 06:33:35;;;;;;;11.9;8.6;;;;;;;-2.24;92.28711;950.5502;;;;
2022/01/24 06:36:04;;;;;;;12.7;9.1;;;;;;;-2.24;92.38672;950.4962;;;;
2022/01/24 06:38:29;;;;;;;11.9;9.3;;;;;;;-2.21;92.07324;950.4567;;;;
2022/01/24 06:40:55;;;;;;;11.7;9;;;;;;;-2.27;92.12598;950.5931;;;;
2022/01/24 06:43:21;;;;;;;16;12.2;;;;;;;-2.33;92.11426;950.634;;;;
2022/01/24 06:45:46;;;;;;;12.8;9.7;;;;;;;-2.31;92.33984;950.6685;;;;
2022/01/24 06:48:11;;;;;;;13.3;9.2;;;;;;;-2.27;91.63867;950.657;;;;
2022/01/24 06:50:40;;;;;;;9.7;7.5;;;;;;;-2.33;92.26758;950.6565;;;;
2022/01/24 06:53:08;;;;;;;9.7;6.8;;;;;;;-2.46;92.40527;950.6609;;;;
2022/01/24 06:55:33;;;;;;;8.5;5.7;;;;;;;-2.52;92.69238;950.7029;;;;
2022/01/24 06:58:00;;;;;;;11.1;8.3;;;;;;;-2.53;92.9209;950.7131;;;;
2022/01/24 07:00:29;;;;;;;16.3;11.7;;;;;;;-2.57;92.99023;950.6236;;;;
2022/01/24 07:02:50;;;;;;;14.6;10.4;;;;;;;-2.45;94.10156;950.785;;;;
2022/01/24 07:05:17;;;;;;;9.6;6.6;;;;;;;-2.38;93.38672;950.6853;;;;
2022/01/24 07:07:42;;;;;;;9.2;6.3;;;;;;;-2.32;92.71191;950.6688;;;;
2022/01/24 07:10:10;;;;;;;8;5.5;;;;;;;-2.23;91.99219;950.6936;;;;
2022/01/24 07:12:35;;;;;;;7.3;5.5;;;;;;;-2.36;92.44043;950.7119;;;;
2022/01/24 07:15:08;;;;;;;10.4;6;;;;;;;-2.49;92.84082;950.7065;;;;
2022/01/24 07:17:49;;;;;;;14.3;10.9;;;;;;;-2.55;93.86914;950.6747;;;;
2022/01/24 07:19:56;;;;;;;12.9;9.8;;;;;;;-2.61;93.7998;950.7933;;;;
2022/01/24 07:22:25;;;;;;;18.4;12.4;;;;;;;-2.53;94.01758;950.6941;;;;
2022/01/24 07:24:50;;;;;;;12.5;9.1;;;;;;;-2.48;93.9834;950.7775;;;;
2022/01/24 07:27:18;;;;;;;9.7;6.8;;;;;;;-2.36;93.76953;950.7961;;;;
2022/01/24 07:29:44;;;;;;;7.3;6;;;;;;;-2.28;93.6084;950.8681;;;;
2022/01/24 07:32:13;;;;;;;9;7.1;;;;;;;-1.96;93.06934;950.8068;;;;
2022/01/24 07:34:36;;;;;;;11.9;9.8;;;;;;;-1.66;92.13672;950.7803;;;;
2022/01/24 07:37:03;;;;;;;11.7;8.7;;;;;;;-1.12;89.36914;950.813;;;;
2022/01/24 07:39:30;;;;;;;10.2;7.2;;;;;;;-0.94;86.37109;950.8112;;;;
2022/01/24 07:42:02;;;;;;;13.4;9.4;;;;;;;-0.58;85.15625;950.8183;;;;
2022/01/24 07:44:22;;;;;;;7;5.7;;;;;;;-0.24;82.58594;950.8578;;;;
2022/01/24 07:46:48;;;;;;;8;6;;;;;;;-0.09;81.29004;950.9411;;;;
2022/01/24 07:49:14;;;;;;;15;10.6;;;;;;;0.5;80.8125;950.9261;;;;
2022/01/24 07:51:41;;;;;;;10.4;7.3;;;;;;;0.59;78.93457;950.8567;;;;
2022/01/24 07:54:08;;;;;;;11.2;7.7;;;;;;;1.27;76.3877;950.9128;;;;
2022/01/24 07:56:37;;;;;;;8.6;6.3;;;;;;;1.28;75.15234;950.9666;;;;
2022/01/24 07:59:06;;;;;;;10.1;6.7;;;;;;;1.61;74.35059;950.9788;;;;
2022/01/24 08:01:31;;;;;;;9.4;6.7;;;;;;;2.26;73.15332;950.9562;;;;
2022/01/24 08:03:58;;;;;;;7.6;5.5;;;;;;;2.91;70.09082;950.9556;;;;
2022/01/24 08:06:23;;;;;;;6;4.4;;;;;;;3.72;66.15527;950.9404;;;;
2022/01/24 08:08:49;;;;;;;3.9;2.4;;;;;;;3.26;67.21777;950.9825;;;;
2022/01/24 08:11:14;;;;;;;5.4;3.3;;;;;;;3.52;66.42773;950.9653;;;;
2022/01/24 08:13:43;;;;;;;6.7;5.2;;;;;;;4.87;61.99707;950.8954;;;;
2022/01/24 08:16:12;;;;;;;11.1;7.9;;;;;;;3.95;63.4043;951.0421;;;;
2022/01/24 08:18:42;;;;;;;11.8;8.2;;;;;;;4.76;62.68945;951.0292;;;;
2022/01/24 08:21:09;;;;;;;10.2;6.6;;;;;;;5.15;61.28223;950.9922;;;;
2022/01/24 08:23:35;;;;;;;7.9;5.3;;;;;;;4.52;61.99023;950.9723;;;;
2022/01/24 08:26:06;;;;;;;10.9;6.3;;;;;;;3.91;64.07129;950.9409;;;;
2022/01/24 08:28:35;;;;;;;8;5;;;;;;;3.83;64.71191;950.9422;;;;
2022/01/24 08:31:04;;;;;;;6.1;4.4;;;;;;;4.62;62.24121;950.8652;;;;
2022/01/24 08:33:29;;;;;;;7.9;5.2;;;;;;;4.63;62.40039;950.9067;;;;
2022/01/24 08:35:56;;;;;;;5.5;3.2;;;;;;;5.51;58.60254;950.8873;;;;
2022/01/24 08:38:21;;;;;;;3.8;2.6;;;;;;;5.44;59.48438;950.9487;;;;
2022/01/24 08:40:50;;;;;;;2.7;2.1;;;;;;;5.81;58.11328;950.9514;;;;
2022/01/24 08:43:12;;;;;;;3.5;2.3;;;;;;;5.47;58.85645;951.0259;;;;
2022/01/24 08:45:48;;;;;;;4.1;3.3;;;;;;;7.31;54.74805;950.9157;;;;
2022/01/24 08:48:04;;;;;;;9.6;7.3;;;;;;;6.8;54.19531;950.9207;;;;
2022/01/24 08:50:30;;;;;;;11.1;7.4;;;;;;;6.03;57.05762;950.8593;;;;
2022/01/24 08:52:59;;;;;;;11;6.2;;;;;;;7.74;53.73438;950.8585;;;;
2022/01/24 08:55:20;;;;;;;7.3;5.6;;;;;;;6.12;55.98535;950.9252;;;;
2022/01/24 08:57:46;;;;;;;8.2;5.7;;;;;;;4.23;62.21777;950.9494;;;;
2022/01/24 09:00:11;;;;;;;6.9;5.4;;;;;;;4.24;62.78223;950.9559;;;;
2022/01/24 09:02:37;;;;;;;7.4;5.2;;;;;;;3.76;64.31934;950.9656;;;;
2022/01/24 09:05:02;;;;;;;4.9;3.9;;;;;;;3.48;65.24316;950.8496;;;;
2022/01/24 09:07:34;;;;;;;5.8;4.1;;;;;;;3.65;65.10059;950.8501;;;;
2022/01/24 09:10:02;;;;;;;6.8;4.8;;;;;;;2.49;69.89746;950.8813;;;;
2022/01/24 09:12:27;;;;;;;6.7;5;;;;;;;2.36;71.37793;950.9048;;;;
2022/01/24 09:14:55;;;;;;;10.1;6.9;;;;;;;2.03;72.97852;950.848;;;;
2022/01/24 09:17:28;;;;;;;9.9;6.8;;;;;;;1.92;74.36914;950.9042;;;;
2022/01/24 09:19:59;;;;;;;8.5;6;;;;;;;1.4;75.69824;950.8875;;;;
2022/01/24 09:22:22;;;;;;;9;5.5;;;;;;;1.62;76.29688;950.8639;;;;
2022/01/24 09:24:49;;;;;;;8.9;6.4;;;;;;;1.28;77.07227;950.9081;;;;
2022/01/24 09:27:15;;;;;;;7.2;5.5;;;;;;;1.26;77.96289;950.8695;;;;
2022/01/24 09:29:43;;;;;;;10.4;6.6;;;;;;;1.59;78.52832;950.8752;;;;
2022/01/24 09:32:08;;;;;;;9.5;6.4;;;;;;;1.62;78.1084;950.8834;;;;
2022/01/24 09:34:34;;;;;;;7.8;4.7;;;;;;;1.73;77.2207;950.8995;;;;
2022/01/24 09:36:59;;;;;;;7.3;5.6;;;;;;;1.76;77.87598;950.815;;;;
2022/01/24 09:39:26;;;;;;;7.5;4.6;;;;;;;1.44;77.24707;950.8495;;;;
2022/01/24 09:41:51;;;;;;;10.9;6.6;;;;;;;1.56;77.70703;950.8575;;;;
2022/01/24 09:44:19;;;;;;;7.3;4.9;;;;;;;1.67;77.95996;950.8379;;;;
2022/01/24 09:46:46;;;;;;;7.1;5.5;;;;;;;1.85;76.62793;950.8518;;;;
2022/01/24 09:49:12;;;;;;;5.8;4.4;;;;;;;1.78;76.87207;950.9026;;;;
2022/01/24 09:51:38;;;;;;;6.1;4.5;;;;;;;1.95;76.93652;950.8555;;;;
2022/01/24 09:54:03;;;;;;;7.9;4.7;;;;;;;2.13;76.42285;950.8759;;;;
2022/01/24 09:56:28;;;;;;;4.4;3.3;;;;;;;2;76.7002;950.7808;;;;
2022/01/24 09:58:54;;;;;;;4;3;;;;;;;2.29;75.8584;950.8616;;;;
2022/01/24 10:01:19;;;;;;;3.5;2.9;;;;;;;2.26;75.49219;950.8632;;;;
2022/01/24 10:03:49;;;;;;;4.7;3;;;;;;;2.43;75.54688;950.7563;;;;
2022/01/24 10:06:14;;;;;;;3;2.7;;;;;;;2.6;74.73438;950.7936;;;;
2022/01/24 10:08:41;;;;;;;2.6;1.7;;;;;;;2.66;73.45703;950.7841;;;;
2022/01/24 10:11:08;;;;;;;2.3;1.9;;;;;;;2.76;73.53027;950.7805;;;;
2022/01/24 10:18:30;;;;;;;2.2;1.4;;;;;;;2.93;72.47168;950.6066;;;;
2022/01/24 10:20:54;;;;;;;1.8;1.4;;;;;;;2.98;71.7627;950.5846;;;;
2022/01/24 10:23:20;;;;;;;3.6;2.5;;;;;;;3.13;72.49414;950.5005;;;;
2022/01/24 10:25:45;;;;;;;2.8;2.1;;;;;;;3.11;72.46875;950.6164;;;;
2022/01/24 10:28:12;;;;;;;1.9;1.4;;;;;;;3.22;72.19531;950.5547;;;;
2022/01/24 10:30:37;;;;;;;2.2;1.7;;;;;;;3.17;71.73926;950.5972;;;;
2022/01/24 10:33:04;;;;;;;2;1.5;;;;;;;3.29;71.75684;950.5796;;;;
2022/01/24 10:35:30;;;;;;;1.9;1.4;;;;;;;3.53;71.76465;950.6494;;;;
2022/01/24 10:37:55;;;;;;;3.8;2;;;;;;;3.55;70.71289;950.6646;;;;
2022/01/24 10:40:22;;;;;;;2.1;1.9;;;;;;;3.79;69.02148;950.6358;;;;
2022/01/24 10:42:55;;;;;;;2.4;1.7;;;;;;;3.92;70.16602;950.5995;;;;
2022/01/24 10:45:13;;;;;;;2.3;1.9;;;;;;;4.13;69.69727;950.5942;;;;
2022/01/24 10:47:44;;;;;;;1.7;1.6;;;;;;;4.18;69.30957;950.6058;;;;
2022/01/24 10:50:03;;;;;;;2.5;1.7;;;;;;;4.23;68.64453;950.5974;;;;
2022/01/24 10:52:31;;;;;;;1.9;1.6;;;;;;;4.3;68.31738;950.6334;;;;
2022/01/24 10:54:56;;;;;;;1.3;1.2;;;;;;;4.36;67.50391;950.5991;;;;
2022/01/24 10:57:23;;;;;;;2.4;1.8;;;;;;;4.17;68.22754;950.6472;;;;
2022/01/24 10:59:48;;;;;;;5.3;3.9;;;;;;;3.97;71.1875;950.6536;;;;
2022/01/24 11:02:18;;;;;;;4.4;3.8;;;;;;;3.81;71.3418;950.5829;;;;
2022/01/24 11:04:45;;;;;;;5;3.5;;;;;;;3.4;72.88867;950.5991;;;;
2022/01/24 11:07:10;;;;;;;4.6;3.4;;;;;;;3.49;72.4209;950.5928;;;;
2022/01/24 11:09:35;;;;;;;4.8;3.5;;;;;;;3.2;73.24707;950.5051;;;;
2022/01/24 11:12:05;;;;;;;4.7;3.7;;;;;;;3.26;72.47266;950.5837;;;;
2022/01/24 11:14:27;;;;;;;6;4.2;;;;;;;3.35;72.59863;950.5934;;;;
2022/01/24 11:16:52;;;;;;;5.8;4.5;;;;;;;3.34;72.83301;950.4417;;;;
2022/01/24 11:19:26;;;;;;;4.7;4;;;;;;;3.4;72.56348;950.4523;;;;
2022/01/24 11:21:45;;;;;;;5.1;4.3;;;;;;;3.42;72.44434;950.5126;;;;
2022/01/24 11:24:10;;;;;;;6.5;5.1;;;;;;;3.35;72.17188;950.426;;;;
2022/01/24 11:26:36;;;;;;;6;4.7;;;;;;;3.44;71.96484;950.4414;;;;
2022/01/24 11:29:01;;;;;;;6.3;4.8;;;;;;;3.44;72.37988;950.4675;;;;
2022/01/24 11:31:27;;;;;;;5.2;4.5;;;;;;;3.31;73.10938;950.4771;;;;
2022/01/24 11:33:52;;;;;;;5.2;4.5;;;;;;;3.36;72.40918;950.5011;;;;
2022/01/24 11:36:17;;;;;;;5.7;4.3;;;;;;;3.48;72.79004;950.4631;;;;
2022/01/24 11:38:45;;;;;;;6.8;5;;;;;;;3.24;74.35547;950.4731;;;;
2022/01/24 11:41:10;;;;;;;5.8;4.7;;;;;;;3.35;72.86816;950.4967;;;;
2022/01/24 11:43:36;;;;;;;5.7;4.9;;;;;;;3.6;72.77832;950.4951;;;;
2022/01/24 11:46:06;;;;;;;6.7;4.8;;;;;;;3.65;72.5498;950.4349;;;;
2022/01/24 11:48:26;;;;;;;6.4;5.1;;;;;;;3.5;73.40039;950.5519;;;;
2022/01/24 11:50:55;;;;;;;5.8;4.8;;;;;;;3.8;72.83496;950.5008;;;;
2022/01/24 11:53:20;;;;;;;7.7;5.1;;;;;;;3.82;73.1748;950.4423;;;;
2022/01/24 11:55:45;;;;;;;6.8;5.4;;;;;;;4.12;72.20313;950.4392;;;;
2022/01/24 11:58:12;;;;;;;6.8;5.3;;;;;;;5.79;67.30273;950.3777;;;;
2022/01/24 12:00:38;;;;;;;7;5.2;;;;;;;7.21;60.6582;950.3397;;;;
2022/01/24 12:03:05;;;;;;;6;4.9;;;;;;;10.19;53.52832;950.2866;;;;
2022/01/24 12:05:30;;;;;;;6.6;4.4;;;;;;;11.55;47.59766;950.2339;;;;
2022/01/24 12:07:55;;;;;;;5.9;4.5;;;;;;;12.17;46.34668;950.1763;;;;
2022/01/24 12:10:20;;;;;;;5.5;4.5;;;;;;;13.04;43.6377;950.2429;;;;
2022/01/24 12:12:47;;;;;;;6.5;4.3;;;;;;;13.77;40.89258;950.1995;;;;
2022/01/24 12:15:16;;;;;;;6;4.1;;;;;;;14.34;40.90039;950.1809;;;;
2022/01/24 12:17:41;;;;;;;4.7;4.2;;;;;;;15.66;38.03125;950.1588;;;;
2022/01/24 12:20:10;;;;;;;6.2;4;;;;;;;16.22;37.32813;950.1638;;;;
2022/01/24 12:22:35;;;;;;;4.9;4;;;;;;;15.84;36.88086;950.1012;;;;
2022/01/24 12:25:02;;;;;;;4.3;3.9;;;;;;;17.01;34.89258;950.1742;;;;
2022/01/24 12:27:27;;;;;;;5.7;4.1;;;;;;;16.35;35.85742;950.0869;;;;
2022/01/24 12:29:59;;;;;;;6.1;4.1;;;;;;;16.07;36.08984;950.1185;;;;
2022/01/24 12:32:22;;;;;;;5.9;4.1;;;;;;;16.05;35.61426;950.063;;;;
2022/01/24 12:34:47;;;;;;;5.1;3.9;;;;;;;15.8;37.38477;950.0595;;;;
2022/01/24 12:37:15;;;;;;;4.8;3.9;;;;;;;17.62;33.88574;950.0192;;;;
2022/01/24 12:39:45;;;;;;;8.4;4.2;;;;;;;17.92;32.73535;949.9966;;;;
2022/01/24 12:42:10;;;;;;;4.7;3.8;;;;;;;17.47;33.32813;950.0106;;;;
2022/01/24 12:46:56;;;;;;;5.7;3.8;;;;;;;18.18;32.37207;949.9402;;;;
2022/01/24 12:49:21;;;;;;;6.4;4.3;;;;;;;18.78;31.53125;949.9514;;;;
2022/01/24 12:51:49;;;;;;;5.2;4.1;;;;;;;19.25;31.11035;949.8929;;;;
2022/01/24 12:54:14;;;;;;;6.3;4.4;;;;;;;19.17;30.7207;949.9002;;;;
2022/01/24 12:56:39;;;;;;;4.9;3.9;;;;;;;18.24;31.7373;949.8405;;;;
2022/01/24 12:59:04;;;;;;;5.2;3.9;;;;;;;17.81;32.66992;949.8987;;;;
2022/01/24 13:01:29;;;;;;;5.7;4;;;;;;;18.43;31.99414;949.8372;;;;
2022/01/24 13:03:58;;;;;;;6.3;3.9;;;;;;;19.82;29.90234;949.8391;;;;
2022/01/24 13:06:23;;;;;;;5;4;;;;;;;19.3;30.62402;949.866;;;;
2022/01/24 13:08:50;;;;;;;4.2;3.8;;;;;;;19.35;30.3252;949.8672;;;;
2022/01/24 13:11:16;;;;;;;4.6;4;;;;;;;20.77;28.15625;949.8059;;;;
2022/01/24 13:13:42;;;;;;;5.1;4.1;;;;;;;20.5;29.07227;949.8264;;;;
2022/01/24 13:21:16;;;;;;;4.6;3.8;;;;;;;23.36;25.28711;949.8572;;;;
2022/01/24 13:23:27;;;;;;;4.9;3.9;;;;;;;23.92;24.40137;949.8929;;;;
2022/01/24 13:25:55;;;;;;;4;3.6;;;;;;;23.12;25.53125;949.8636;;;;
2022/01/24 13:28:23;;;;;;;4.4;3.6;;;;;;;22.4;25.93652;949.8045;;;;
2022/01/24 13:30:48;;;;;;;5.6;3.9;;;;;;;22.05;26.29102;949.863;;;;
2022/01/24 13:33:16;;;;;;;4.1;3.7;;;;;;;20.2;28.90137;949.9093;;;;
2022/01/24 13:35:40;;;;;;;4.4;3.8;;;;;;;21.67;27.00684;949.9216;;;;
2022/01/24 13:38:05;;;;;;;4.8;3.8;;;;;;;22.27;26.30469;949.8506;;;;
2022/01/24 13:40:34;;;;;;;4.5;3.8;;;;;;;20.97;27.43164;949.8606;;;;
2022/01/24 13:42:59;;;;;;;4.5;3.8;;;;;;;21.36;26.84766;949.8386;;;;
2022/01/24 13:45:28;;;;;;;4.4;3.7;;;;;;;22.09;26.29395;949.7982;;;;
2022/01/24 13:47:53;;;;;;;4.2;3.5;;;;;;;22.68;26.16504;949.7488;;;;
2022/01/24 13:50:19;;;;;;;5.5;4;;;;;;;21.31;27.30078;949.7826;;;;
2022/01/24 13:52:43;;;;;;;4.6;3.9;;;;;;;21.81;26.21777;949.7743;;;;
2022/01/24 13:55:08;;;;;;;4.6;3.8;;;;;;;19.84;28.5752;949.6647;;;;
2022/01/24 13:57:36;;;;;;;4;3.3;;;;;;;19.95;29.31738;949.7308;;;;
2022/01/24 14:00:01;;;;;;;4.7;3.6;;;;;;;21;27.53906;949.7662;;;;
2022/01/24 14:02:32;;;;;;;4.8;3.7;;;;;;;21.75;26.97656;949.6835;;;;
2022/01/24 14:04:52;;;;;;;4.7;3.7;;;;;;;21.81;26.52344;949.7045;;;;
2022/01/24 14:07:16;;;;;;;4.6;3.4;;;;;;;21.35;27.02148;949.603;;;;
2022/01/24 14:09:45;;;;;;;4;3.4;;;;;;;19.63;28.56055;949.7007;;;;
2022/01/24 14:12:09;;;;;;;5.9;3.6;;;;;;;18.41;30.86523;949.7813;;;;
2022/01/24 14:14:44;;;;;;;4.6;3.5;;;;;;;17.82;32.58887;949.7029;;;;
2022/01/24 14:17:18;;;;;;;4.9;3.5;;;;;;;17.17;32.63379;949.7566;;;;
2022/01/24 14:19:30;;;;;;;3.8;3.2;;;;;;;18.6;30.79688;949.7311;;;;
2022/01/24 14:21:55;;;;;;;4.8;3.6;;;;;;;19.59;29.4209;949.6353;;;;
2022/01/24 14:24:20;;;;;;;4.9;3.5;;;;;;;18.83;30.53418;949.6747;;;;
2022/01/24 14:26:49;;;;;;;3.9;3.4;;;;;;;18.98;30.38086;949.6942;;;;
2022/01/24 14:29:14;;;;;;;3.6;2.9;;;;;;;19.13;29.87988;949.6962;;;;
2022/01/24 14:31:38;;;;;;;4.4;3.6;;;;;;;19.21;29.86133;949.699;;;;
2022/01/24 14:34:03;;;;;;;3.9;3.2;;;;;;;19.74;29.29102;949.6838;;;;
2022/01/24 14:36:29;;;;;;;4;3.5;;;;;;;19.68;29.08887;949.6649;;;;
2022/01/24 14:38:55;;;;;;;5.7;3.8;;;;;;;19.92;28.46289;949.6722;;;;
2022/01/24 14:41:19;;;;;;;4.6;3.8;;;;;;;20.19;28.65625;949.6894;;;;
2022/01/24 14:46:10;;;;;;;4.4;3.8;;;;;;;19.16;30.1377;949.7227;;;;
2022/01/24 14:48:38;;;;;;;4.4;3.6;;;;;;;17.39;32.40625;949.8096;;;;
2022/01/24 14:51:03;;;;;;;4.2;3.6;;;;;;;18.41;31.36523;949.7313;;;;
2022/01/24 14:53:30;;;;;;;5.1;3.2;;;;;;;18.92;30.55176;949.7509;;;;
2022/01/24 14:55:55;;;;;;;4;3.3;;;;;;;18.67;30.65137;949.7548;;;;
2022/01/24 14:58:23;;;;;;;5.2;3.1;;;;;;;16.88;33.17871;949.8414;;;;
2022/01/24 15:00:48;;;;;;;3.9;3.4;;;;;;;16.6;33.56348;949.7791;;;;
2022/01/24 15:03:17;;;;;;;3.9;3.3;;;;;;;16.03;34.42188;949.7438;;;;
2022/01/24 15:05:42;;;;;;;4.9;3.6;;;;;;;14.88;36.41895;949.7746;;;;
2022/01/24 15:08:09;;;;;;;4.5;3.8;;;;;;;13.46;39.38086;949.8195;;;;
2022/01/24 15:10:35;;;;;;;4.8;3.9;;;;;;;12.17;41.91211;949.7883;;;;
2022/01/24 15:13:07;;;;;;;5.2;3.8;;;;;;;10.86;45.05371;949.8445;;;;
2022/01/24 15:15:31;;;;;;;4.9;3.9;;;;;;;9.85;48.24219;949.9044;;;;
2022/01/24 15:25:22;;;;;;;15.1;10.7;;;;;;;6.9;59.67676;950.0345;;;;
2022/01/24 15:27:41;;;;;;;23.8;16.9;;;;;;;6.48;61.51758;950.0697;;;;
2022/01/24 15:30:06;;;;;;;16.8;13.4;;;;;;;6.09;63.40723;950.1026;;;;
2022/01/24 15:32:33;;;;;;;26.4;20.4;;;;;;;5.61;65.58203;950.1325;;;;
2022/01/24 15:34:58;;;;;;;23.8;20.1;;;;;;;5.19;67.52441;950.1803;;;;
2022/01/24 15:37:23;;;;;;;15.6;11.9;;;;;;;4.74;69.80566;950.199;;;;
2022/01/24 15:39:49;;;;;;;13.8;9.5;;;;;;;4.43;71.59082;950.2154;;;;